Пришня

Карта отелей и гостиниц, располагающихся рядом с аэропортом Пришня :

Пришня Тульская область 53° 54' 34.8012" N, 37° 20' 30.3" E
Код аэродрома ИКАО
H361
Код аэродрома RU
Х361
Координаты
N53.90967° E037.34175°
Превышение над уровнем моря
216
Основная полоса
08/26
Курс магнитный
080/260
Длина основной ВПП
10
Ширина основной ВПП
10
Покрытие основной ВПП
Твёрдое (бетон)
Освещение ВПП
Нет
Тип: 
Вертодром
Класс аэродрома: 
Принадлежность: 
ГА
Статус: 
Действующий
Сайт: 
E-mail аэродрома: 
Страна: 
Россия
Регион: 
Тульская область
Город: 
Дополнительная информация: 
Оператор: Компрессорная станция КС-2 «Щекинская» с десятью агрегатами типа СТД-4000, ПАО "ГазПром".

Найти трансфер

С помощью этой формы Вы можете найти трансфер из аэропорта Пришня в город, аэропорт или вокзал:

Карта места

Javascript is required to view this map.

Погода в аэропортах:

Авиационная погода в Закаталы

Регион: 
Погода METAR: 
UBBY 171900Z 12006KT 9999 VCTS SCT030CB OVC070 18/18 Q1019 R33/////// NOSIG RMK MT OBSC
Время наблюдения
2021-09-17T19:00:00Z
Температура C
18.0
Точка росы
18.0
Направление ветра
120
Скорость ветра (узлы)
6
Метео видимость
6.21
Явления погоды
VCTS
Условия полета
VFR

Авиационная погода в Уфе

Регион: 
Погода METAR: 
UWUU 171830Z 25004MPS 9999 -SHRA OVC025CB 07/05 Q1012 R32L/290244 NOSIG
Время наблюдения
2021-09-17T18:30:00Z
Температура C
7.0
Точка росы
5.0
Направление ветра
250
Скорость ветра (узлы)
8
Метео видимость
6.21
Явления погоды
-SHRA
Условия полета
MVFR
Аэропорт подробнее: 

Авиационная погода в Екатеринбурге

Регион: 
Погода METAR: 
USSS 171830Z 10002MPS 9000 -SHRA SCT008 OVC022CB 05/05 Q1007 R26L/290050 R26R/290032 TEMPO 3100 -SHRA BKN005 SCT016CB RMK QFE734/0979
Время наблюдения
2021-09-17T18:30:00Z
Температура C
5.0
Точка росы
5.0
Направление ветра
100
Скорость ветра (узлы)
4
Метео видимость
5.59
Явления погоды
-SHRA
Условия полета
MVFR
Аэропорт подробнее: 

Авиационная погода в Батуми

Регион: 
Погода METAR: 
UGSB 171830Z 05003KT 350V120 6000 SHRA SCT014 BKN028CB 18/17 Q1017 R13/29//55 NOSIG
Время наблюдения
2021-09-17T18:30:00Z
Температура C
18.0
Точка росы
17.0
Направление ветра
50
Скорость ветра (узлы)
3
Метео видимость
3.73
Явления погоды
SHRA
Условия полета
MVFR